createdAt,value
2019-05-14T00:01:41.957Z,1.05
2019-05-14T00:04:11.500Z,0.80
2019-05-14T00:06:41.573Z,1.05
2019-05-14T00:09:09.060Z,0.85
2019-05-14T00:11:36.620Z,0.70
2019-05-14T00:14:04.474Z,0.60
2019-05-14T00:16:32.050Z,0.70
2019-05-14T00:19:01.640Z,0.62
2019-05-14T00:21:31.506Z,0.78
2019-05-14T00:23:58.907Z,0.70
2019-05-14T00:26:26.751Z,0.82
2019-05-14T00:28:54.286Z,0.70
2019-05-14T00:31:21.977Z,0.80
2019-05-14T00:33:51.282Z,0.72
2019-05-14T00:36:21.370Z,0.98
2019-05-14T00:38:48.586Z,1.00
2019-05-14T00:41:16.142Z,0.82
2019-05-14T00:43:44.241Z,0.88
2019-05-14T00:46:12.090Z,0.90
2019-05-14T00:48:42.019Z,0.68
2019-05-14T00:51:11.010Z,1.02
2019-05-14T00:53:38.420Z,0.98
2019-05-14T00:56:05.888Z,0.90
2019-05-14T00:58:33.710Z,0.90
2019-05-14T01:01:01.902Z,1.30
2019-05-14T01:03:32.178Z,1.00
2019-05-14T01:06:02.593Z,1.00
2019-05-14T01:08:29.220Z,0.98
2019-05-14T01:10:56.719Z,1.20
2019-05-14T01:13:24.259Z,1.00
2019-05-14T01:15:52.225Z,0.60
2019-05-14T01:18:21.800Z,0.75
2019-05-14T01:20:51.906Z,0.80
2019-05-14T01:23:21.469Z,0.88
2019-05-14T01:25:48.761Z,0.88
2019-05-14T01:28:16.401Z,1.00
2019-05-14T01:30:44.160Z,1.25
2019-05-14T01:33:12.026Z,0.72
2019-05-14T01:35:39.540Z,1.00
2019-05-14T01:38:07.167Z,0.70
2019-05-14T01:40:34.947Z,0.70
2019-05-14T01:43:02.751Z,0.80
2019-05-14T01:45:31.737Z,1.20
2019-05-14T01:48:01.203Z,0.82
2019-05-14T01:50:28.793Z,0.70
2019-05-14T01:52:56.327Z,0.80
2019-05-14T01:55:23.753Z,0.82
2019-05-14T01:57:51.767Z,0.85
2019-05-14T02:00:21.897Z,0.98
2019-05-14T02:02:49.459Z,0.72
2019-05-14T02:05:17.227Z,1.00
2019-05-14T02:07:44.917Z,1.10
2019-05-14T02:10:12.944Z,0.85
2019-05-14T02:12:42.311Z,0.60
2019-05-14T02:15:12.010Z,0.98
2019-05-14T02:17:41.449Z,0.82
2019-05-14T02:20:09.279Z,0.70
2019-05-14T02:22:36.704Z,0.70
2019-05-14T02:25:05.041Z,0.80
2019-05-14T02:27:35.001Z,0.80
2019-05-14T02:30:02.419Z,0.68
2019-05-14T02:32:30.416Z,0.60
2019-05-14T02:34:58.940Z,0.88
2019-05-14T02:37:29.879Z,0.68
2019-05-14T02:39:59.467Z,0.70
2019-05-14T02:42:28.694Z,0.80
2019-05-14T02:44:55.078Z,0.70
2019-05-14T02:47:22.590Z,0.98
2019-05-14T02:49:50.395Z,0.68
2019-05-14T02:52:20.476Z,0.65
2019-05-14T02:54:49.654Z,0.90
2019-05-14T02:57:20.006Z,0.80
2019-05-14T02:59:49.862Z,0.70
2019-05-14T03:02:18.718Z,0.82
2019-05-14T03:04:46.075Z,1.40
2019-05-14T03:07:13.774Z,0.60
2019-05-14T03:09:41.608Z,1.15
2019-05-14T03:12:10.312Z,0.80
2019-05-14T03:14:39.555Z,0.78
2019-05-14T03:17:10.530Z,0.75
2019-05-14T03:19:40.904Z,1.00
2019-05-14T03:22:10.094Z,0.62
2019-05-14T03:24:39.409Z,0.88
2019-05-14T03:27:05.830Z,0.88
2019-05-14T03:29:33.701Z,0.90
2019-05-14T03:32:03.463Z,0.70
2019-05-14T03:34:32.783Z,0.70
2019-05-14T03:37:03.347Z,0.68
2019-05-14T03:39:30.314Z,0.55
2019-05-14T03:41:59.108Z,0.82
2019-05-14T03:44:29.187Z,0.78
2019-05-14T03:47:03.750Z,0.78
2019-05-14T03:49:28.790Z,0.70
2019-05-14T03:51:55.691Z,0.90
2019-05-14T03:54:23.160Z,0.62
2019-05-14T03:56:51.000Z,0.80
2019-05-14T03:59:19.900Z,0.90
2019-05-14T04:01:51.221Z,0.90
2019-05-14T04:04:19.453Z,0.70
2019-05-14T04:06:49.715Z,1.00
2019-05-14T04:09:20.279Z,0.80
2019-05-14T04:11:51.788Z,0.98
2019-05-14T04:14:22.022Z,0.88
2019-05-14T04:17:04.765Z,0.70
2019-05-14T04:19:23.273Z,0.88
2019-05-14T04:21:50.816Z,0.80
2019-05-14T04:24:21.873Z,0.90
2019-05-14T04:27:01.962Z,0.82
2019-05-14T04:29:20.233Z,0.90
2019-05-14T04:31:50.168Z,0.85
2019-05-14T04:34:19.502Z,0.70
2019-05-14T04:36:50.304Z,1.07
2019-05-14T04:39:19.472Z,0.60
2019-05-14T04:41:49.786Z,0.93
2019-05-14T04:44:19.280Z,0.50
2019-05-14T04:46:49.132Z,1.40
2019-05-14T04:49:15.544Z,0.82
2019-05-14T04:51:43.028Z,0.70
2019-05-14T04:54:10.982Z,0.80
2019-05-14T04:56:40.017Z,0.95
2019-05-14T04:59:10.358Z,0.65
2019-05-14T05:01:40.193Z,1.00
2019-05-14T05:04:09.565Z,1.10
2019-05-14T05:06:39.381Z,0.90
2019-05-14T05:09:09.298Z,0.65
2019-05-14T05:11:39.356Z,0.90
2019-05-14T05:14:08.629Z,0.75
2019-05-14T05:16:38.844Z,0.60
2019-05-14T05:19:05.603Z,0.78
2019-05-14T05:21:33.870Z,0.88
2019-05-14T05:24:01.436Z,0.90
2019-05-14T05:26:28.929Z,0.90
2019-05-14T05:29:03.565Z,1.00
2019-05-14T05:31:26.249Z,1.87
2019-05-14T05:33:53.723Z,1.07
2019-05-14T05:36:21.280Z,0.90
2019-05-14T05:38:49.367Z,1.00
2019-05-14T05:41:18.901Z,1.10
2019-05-14T05:43:48.421Z,1.20
2019-05-14T05:46:18.874Z,1.55
2019-05-14T05:48:48.024Z,1.25
2019-05-14T05:51:15.266Z,2.15
2019-05-14T05:53:42.825Z,1.55
2019-05-14T05:56:10.321Z,1.75
2019-05-14T05:58:39.829Z,1.85
2019-05-14T06:01:09.657Z,1.60
2019-05-14T06:03:39.083Z,1.80
2019-05-14T06:06:13.248Z,1.57
2019-05-14T06:08:38.574Z,1.85
2019-05-14T06:11:08.167Z,1.40
2019-05-14T06:13:35.625Z,1.47
2019-05-14T06:16:03.359Z,1.30
2019-05-14T06:18:33.984Z,1.00
2019-05-14T06:21:00.290Z,1.15
2019-05-14T06:23:28.645Z,0.90
2019-05-14T06:25:59.404Z,1.20
2019-05-14T06:28:30.110Z,1.42
2019-05-14T06:30:55.433Z,1.40
2019-05-14T06:33:22.959Z,1.10
2019-05-14T06:35:50.866Z,1.10
2019-05-14T06:38:18.659Z,1.10
2019-05-14T06:40:48.752Z,1.52
2019-05-14T06:43:15.864Z,1.50
2019-05-14T06:45:43.288Z,1.15
2019-05-14T06:48:26.378Z,1.20
2019-05-14T06:50:40.226Z,1.42
2019-05-14T06:53:08.506Z,1.70
2019-05-14T06:55:36.264Z,1.32
2019-05-14T06:58:03.827Z,1.65
2019-05-14T07:00:31.584Z,1.07
2019-05-14T07:02:59.137Z,1.42
2019-05-14T07:05:28.116Z,1.60
2019-05-14T07:07:55.755Z,1.40
2019-05-14T07:10:23.176Z,1.25
2019-05-14T07:12:50.837Z,1.40
2019-05-14T07:15:18.730Z,1.45
2019-05-14T07:17:48.655Z,1.50
2019-05-14T07:20:18.913Z,1.12
2019-05-14T07:22:48.363Z,1.75
2019-05-14T07:25:18.254Z,1.60
2019-05-14T07:27:45.749Z,1.52
2019-05-14T07:30:13.941Z,1.95
2019-05-14T07:32:41.702Z,1.40
2019-05-14T07:35:09.482Z,1.30
2019-05-14T07:37:39.621Z,1.15
2019-05-14T07:40:08.521Z,1.45
2019-05-14T07:42:38.384Z,1.52
2019-05-14T07:45:09.365Z,1.20
2019-05-14T07:47:38.825Z,1.80
2019-05-14T07:50:08.640Z,1.40
2019-05-14T07:52:44.914Z,1.55
2019-05-14T07:55:06.007Z,1.17
2019-05-14T07:57:33.696Z,1.20
2019-05-14T08:00:01.255Z,1.50
2019-05-14T08:02:29.104Z,1.35
2019-05-14T08:04:58.025Z,1.55
2019-05-14T08:07:28.025Z,1.22
2019-05-14T08:09:55.040Z,1.50
2019-05-14T08:12:22.701Z,1.32
2019-05-14T08:15:14.166Z,1.32
2019-05-14T08:17:22.590Z,1.20
2019-05-14T08:19:50.253Z,1.15
2019-05-14T08:22:18.623Z,0.93
2019-05-14T08:24:48.730Z,1.15
2019-05-14T08:27:15.730Z,1.20
2019-05-14T08:29:43.292Z,1.20
2019-05-14T08:32:13.428Z,1.12
2019-05-14T08:34:41.062Z,1.20
2019-05-14T08:37:08.932Z,1.30
2019-05-14T08:39:38.904Z,0.90
2019-05-14T08:42:08.308Z,0.80
2019-05-14T08:44:35.584Z,1.20
2019-05-14T08:47:03.118Z,1.27
2019-05-14T08:49:42.621Z,1.00
2019-05-14T08:52:00.351Z,1.45
2019-05-14T08:54:28.517Z,1.50
2019-05-14T08:56:58.242Z,1.17
2019-05-14T08:59:25.371Z,1.12
2019-05-14T09:02:02.371Z,0.90
2019-05-14T09:04:23.651Z,1.25
2019-05-14T09:06:51.163Z,1.20
2019-05-14T09:09:22.124Z,1.00
2019-05-14T09:11:50.357Z,1.37
2019-05-14T09:14:18.815Z,0.95
2019-05-14T09:16:50.526Z,1.12
2019-05-14T09:19:16.139Z,0.90
2019-05-14T09:21:43.671Z,1.15
2019-05-14T09:24:11.520Z,0.93
2019-05-14T09:26:39.259Z,1.02
2019-05-14T09:29:19.551Z,0.90
2019-05-14T09:31:38.793Z,1.45
2019-05-14T09:34:05.667Z,1.00
2019-05-14T09:36:33.168Z,1.40
2019-05-14T09:39:01.148Z,1.20
2019-05-14T09:41:30.834Z,1.27
2019-05-14T09:43:58.730Z,1.50
2019-05-14T09:46:28.763Z,1.12
2019-05-14T09:48:55.771Z,1.67
2019-05-14T09:51:23.567Z,1.40
2019-05-14T09:53:52.361Z,1.20
2019-05-14T09:56:19.783Z,1.40
2019-05-14T09:58:49.673Z,1.52
2019-05-14T10:01:19.319Z,1.50
2019-05-14T10:03:49.361Z,1.72
2019-05-14T10:06:16.595Z,1.30
2019-05-14T10:08:44.086Z,1.47
2019-05-14T10:11:12.199Z,1.27
2019-05-14T10:13:39.918Z,1.40
2019-05-14T10:16:09.509Z,1.60
2019-05-14T10:18:38.042Z,1.57
2019-05-14T10:21:08.624Z,1.47
2019-05-14T10:23:38.852Z,1.52
2019-05-14T10:26:05.890Z,1.70
2019-05-14T10:28:33.505Z,1.50
2019-05-14T10:31:03.721Z,1.27
2019-05-14T10:33:30.338Z,1.65
2019-05-14T10:35:58.849Z,1.02
2019-05-14T10:38:29.256Z,1.22
2019-05-14T10:40:58.429Z,1.10
2019-05-14T10:43:28.572Z,0.98
2019-05-14T10:45:54.984Z,1.45
2019-05-14T10:48:22.494Z,1.22
2019-05-14T10:51:03.420Z,1.30
2019-05-14T10:53:20.400Z,1.20
2019-05-14T10:55:48.596Z,1.00
2019-05-14T10:58:19.388Z,0.90
2019-05-14T11:00:45.801Z,1.12
2019-05-14T11:03:13.345Z,1.20
2019-05-14T11:05:41.677Z,1.42
2019-05-14T11:08:11.883Z,0.90
2019-05-14T11:10:42.182Z,1.32
2019-05-14T11:13:09.659Z,1.02
2019-05-14T11:15:39.489Z,1.15
2019-05-14T11:18:08.695Z,1.10
2019-05-14T11:20:41.638Z,1.15
2019-05-14T11:23:05.747Z,0.90
2019-05-14T11:25:33.253Z,1.05
2019-05-14T11:28:00.735Z,1.00
2019-05-14T11:30:28.744Z,1.00
2019-05-14T11:32:58.418Z,1.00
2019-05-14T11:35:28.773Z,1.02
2019-05-14T11:37:58.667Z,0.90
2019-05-14T11:40:25.726Z,1.10
2019-05-14T11:42:53.370Z,0.85
2019-05-14T11:45:21.076Z,1.02
2019-05-14T11:47:49.044Z,0.90
2019-05-14T11:50:19.289Z,0.90
2019-05-14T11:52:48.395Z,0.93
2019-05-14T11:55:18.711Z,0.85
2019-05-14T11:57:48.396Z,0.98
2019-05-14T12:00:16.172Z,1.00
2019-05-14T12:02:43.608Z,0.80
2019-05-14T12:05:11.280Z,0.90
2019-05-14T12:07:39.053Z,0.90
2019-05-14T12:10:09.064Z,1.00
2019-05-14T12:12:37.009Z,0.95
2019-05-14T12:15:08.719Z,0.75
2019-05-14T12:17:38.966Z,0.93
2019-05-14T12:20:05.706Z,0.80
2019-05-14T12:22:34.275Z,0.82
2019-05-14T12:25:01.788Z,0.80
2019-05-14T12:27:29.546Z,1.02
2019-05-14T12:29:59.855Z,1.02
2019-05-14T12:32:29.384Z,0.90
2019-05-14T12:34:59.206Z,0.70
2019-05-14T12:37:25.757Z,0.80
2019-05-14T12:39:53.517Z,0.90
2019-05-14T12:42:20.990Z,0.72
2019-05-14T12:44:48.472Z,0.62
2019-05-14T12:47:18.573Z,0.62
2019-05-14T12:49:48.180Z,0.90
2019-05-14T12:52:24.459Z,0.90
2019-05-14T12:54:44.841Z,0.80
2019-05-14T12:57:13.680Z,0.70
2019-05-14T12:59:41.189Z,0.80
2019-05-14T13:02:09.798Z,0.80
2019-05-14T13:04:37.682Z,0.80
2019-05-14T13:07:05.153Z,0.80
2019-05-14T13:09:32.896Z,1.00
2019-05-14T13:12:00.362Z,0.60
2019-05-14T13:14:28.354Z,0.85
2019-05-14T13:16:59.593Z,0.65
2019-05-14T13:19:28.364Z,0.80
2019-05-14T13:22:12.744Z,0.90
2019-05-14T13:24:25.432Z,0.88
2019-05-14T13:26:53.242Z,0.90
2019-05-14T13:29:20.845Z,0.80
2019-05-14T13:31:49.741Z,0.65
2019-05-14T13:34:19.529Z,0.80
2019-05-14T13:36:48.830Z,0.70
2019-05-14T13:39:19.219Z,0.70
2019-05-14T13:41:48.683Z,0.88
2019-05-14T13:44:21.262Z,0.93
2019-05-14T13:46:45.099Z,0.90
2019-05-14T13:49:12.670Z,0.90
2019-05-14T13:51:40.347Z,0.98
2019-05-14T13:54:08.605Z,0.75
2019-05-14T13:56:36.156Z,1.40
2019-05-14T13:59:03.791Z,1.37
2019-05-14T14:01:31.287Z,1.82
2019-05-14T14:04:10.361Z,1.92
2019-05-14T14:06:29.696Z,2.50
2019-05-14T14:08:59.382Z,1.50
2019-05-14T14:11:31.076Z,1.00
2019-05-14T14:13:58.407Z,0.85
2019-05-14T14:16:28.366Z,0.78
2019-05-14T14:18:55.477Z,0.70
2019-05-14T14:21:23.041Z,0.70
2019-05-14T14:23:50.887Z,0.70
2019-05-14T14:26:18.666Z,0.68
2019-05-14T14:28:49.038Z,0.90
2019-05-14T14:31:15.670Z,0.70
2019-05-14T14:33:43.309Z,0.85
2019-05-14T14:36:10.826Z,0.78
2019-05-14T14:38:40.254Z,0.98
2019-05-14T14:41:10.113Z,0.80
2019-05-14T14:43:42.810Z,0.68
2019-05-14T14:46:14.069Z,0.70
2019-05-14T14:48:40.068Z,0.90
2019-05-14T14:51:08.468Z,0.80
2019-05-14T14:53:51.347Z,0.70
2019-05-14T14:56:09.058Z,0.80
2019-05-14T14:58:35.511Z,0.50
2019-05-14T15:01:03.457Z,0.68
2019-05-14T15:03:31.034Z,0.70
2019-05-14T15:05:58.972Z,0.90
2019-05-14T15:08:29.390Z,0.85
2019-05-14T15:10:59.335Z,0.53
2019-05-14T15:13:26.402Z,0.70
2019-05-14T15:15:53.898Z,0.70
2019-05-14T15:18:21.699Z,0.70
2019-05-14T15:20:49.542Z,0.78
2019-05-14T15:23:19.466Z,0.50
2019-05-14T15:25:46.878Z,0.60
2019-05-14T15:28:14.502Z,0.80
2019-05-14T15:30:42.712Z,0.60
2019-05-14T15:33:10.675Z,0.53
2019-05-14T15:35:38.503Z,0.60
2019-05-14T15:38:11.140Z,0.60
2019-05-14T15:40:35.541Z,0.40
2019-05-14T15:43:03.549Z,0.60
2019-05-14T15:45:31.380Z,0.53
2019-05-14T15:48:03.766Z,0.60
2019-05-14T15:50:32.806Z,0.85
2019-05-14T15:52:59.017Z,0.50
2019-05-14T15:55:28.809Z,0.62
2019-05-14T15:57:58.932Z,0.57
2019-05-14T16:00:28.995Z,0.57
2019-05-14T16:03:00.038Z,0.70
2019-05-14T16:05:28.273Z,1.00
2019-05-14T16:07:55.737Z,0.60
2019-05-14T16:10:23.508Z,0.57
2019-05-14T16:12:51.239Z,0.50
2019-05-14T16:15:18.925Z,0.45
2019-05-14T16:18:02.999Z,0.50
2019-05-14T16:20:18.857Z,0.60
2019-05-14T16:22:46.148Z,0.60
2019-05-14T16:25:14.241Z,0.50
2019-05-14T16:27:41.722Z,0.60
2019-05-14T16:30:10.252Z,0.53
2019-05-14T16:32:39.439Z,0.72
2019-05-14T16:35:08.879Z,0.60
2019-05-14T16:37:39.118Z,0.80
2019-05-14T16:40:07.914Z,0.47
2019-05-14T16:42:35.785Z,0.40
2019-05-14T16:45:04.040Z,0.50
2019-05-14T16:47:31.857Z,0.68
2019-05-14T16:50:00.091Z,0.50
2019-05-14T16:52:28.660Z,0.40
2019-05-14T16:55:12.312Z,0.47
2019-05-14T16:57:29.138Z,0.40
2019-05-14T16:59:58.554Z,0.57
2019-05-14T17:02:25.977Z,0.60
2019-05-14T17:04:53.616Z,0.50
2019-05-14T17:07:21.275Z,0.47
2019-05-14T17:09:49.373Z,0.50
2019-05-14T17:12:20.174Z,0.40
2019-05-14T17:14:46.422Z,0.50
2019-05-14T17:17:14.434Z,0.57
2019-05-14T17:19:42.024Z,0.40
2019-05-14T17:22:24.022Z,0.85
2019-05-14T17:24:40.154Z,0.50
2019-05-14T17:27:08.972Z,0.40
2019-05-14T17:29:38.867Z,1.07
2019-05-14T17:32:06.973Z,0.88
2019-05-14T17:34:34.755Z,1.55
2019-05-14T17:37:02.840Z,1.30
2019-05-14T17:39:30.549Z,1.02
2019-05-14T17:41:58.904Z,0.60
2019-05-14T17:44:27.881Z,0.65
2019-05-14T17:46:58.556Z,0.60
2019-05-14T17:49:28.214Z,0.75
2019-05-14T17:51:55.185Z,0.80
2019-05-14T17:54:22.670Z,0.50
2019-05-14T17:56:50.547Z,0.42
2019-05-14T17:59:19.137Z,0.70
2019-05-14T18:01:47.918Z,0.50
2019-05-14T18:04:18.219Z,0.80
2019-05-14T18:06:45.539Z,0.40
2019-05-14T18:09:13.288Z,0.40
2019-05-14T18:11:41.753Z,0.70
2019-05-14T18:14:11.981Z,0.50
2019-05-14T18:16:39.509Z,0.60
2019-05-14T18:19:08.788Z,0.40
2019-05-14T18:21:39.016Z,0.42
2019-05-14T18:24:07.693Z,0.60
2019-05-14T18:26:38.460Z,0.65
2019-05-14T18:29:05.786Z,0.60
2019-05-14T18:31:33.367Z,0.70
2019-05-14T18:34:01.333Z,0.70
2019-05-14T18:36:29.029Z,0.88
2019-05-14T18:38:58.607Z,1.02
2019-05-14T18:41:29.752Z,0.70
2019-05-14T18:43:58.851Z,0.70
2019-05-14T18:46:28.549Z,0.50
2019-05-14T18:48:55.871Z,0.88
2019-05-14T18:51:23.758Z,0.80
2019-05-14T18:53:51.580Z,0.80
2019-05-14T18:56:23.860Z,0.60
2019-05-14T18:58:49.077Z,0.62
2019-05-14T19:01:19.668Z,0.70
2019-05-14T19:03:49.376Z,0.62
2019-05-14T19:06:39.639Z,0.80
2019-05-14T19:12:38.480Z,0.70
2019-05-14T19:15:32.269Z,0.95
2019-05-14T19:19:08.114Z,0.82
2019-05-14T19:22:07.129Z,1.12
2019-05-14T19:24:35.000Z,1.60
2019-05-14T19:27:03.074Z,1.70
2019-05-14T19:29:31.348Z,1.20
2019-05-14T19:31:59.855Z,1.20
2019-05-14T19:34:28.752Z,1.17
2019-05-14T19:36:57.118Z,1.42
2019-05-14T19:39:24.979Z,1.40
2019-05-14T19:41:52.849Z,1.50
2019-05-14T19:44:20.642Z,2.15
2019-05-14T19:46:49.208Z,2.25
2019-05-14T19:49:18.480Z,1.62
2019-05-14T19:51:48.094Z,1.35
2019-05-14T19:54:19.331Z,1.57
2019-05-14T19:56:55.539Z,1.27
2019-05-14T19:59:17.941Z,1.07
2019-05-14T20:01:48.226Z,1.05
2019-05-14T20:04:18.112Z,0.90
2019-05-14T20:06:45.725Z,1.27
2019-05-14T20:09:13.361Z,0.80
2019-05-14T20:11:41.668Z,1.10
2019-05-14T20:14:09.556Z,1.30
2019-05-14T20:16:39.209Z,0.90
2019-05-14T20:19:08.857Z,0.80
2019-05-14T20:21:38.761Z,0.82
2019-05-14T20:24:06.099Z,1.00
2019-05-14T20:26:34.158Z,0.82
2019-05-14T20:29:26.101Z,1.00
2019-05-14T20:31:53.853Z,0.90
2019-05-14T20:34:21.306Z,0.93
2019-05-14T20:36:49.203Z,0.88
2019-05-14T20:39:18.214Z,0.88
2019-05-14T20:41:48.865Z,0.93
2019-05-14T20:44:18.700Z,0.93
2019-05-14T20:46:46.209Z,1.07
2019-05-14T20:49:14.223Z,0.98
2019-05-14T20:51:42.410Z,0.95
2019-05-14T20:54:10.235Z,0.90
2019-05-14T20:56:39.984Z,1.00
2019-05-14T20:59:08.297Z,0.88
2019-05-14T21:01:35.882Z,0.80
2019-05-14T21:04:03.676Z,0.80
2019-05-14T21:06:31.160Z,0.68
2019-05-14T21:08:59.156Z,0.50
2019-05-14T21:11:28.743Z,0.70
2019-05-14T21:13:58.117Z,0.55
2019-05-14T21:16:28.065Z,0.75
2019-05-14T21:18:55.117Z,0.80
2019-05-14T21:21:23.133Z,0.53
2019-05-14T21:23:53.837Z,0.60
2019-05-14T21:26:21.895Z,0.72
2019-05-14T21:28:49.759Z,0.70
2019-05-14T21:31:18.089Z,0.60
2019-05-14T21:33:46.069Z,0.40
2019-05-14T21:36:13.586Z,0.70
2019-05-14T21:38:41.300Z,0.75
2019-05-14T21:41:09.063Z,0.60
2019-05-14T21:43:38.475Z,0.98
2019-05-14T21:46:08.101Z,0.70
2019-05-14T21:48:38.562Z,0.68
2019-05-14T21:51:05.766Z,0.70
2019-05-14T21:53:33.138Z,0.53
2019-05-14T21:56:01.028Z,0.70
2019-05-14T21:58:29.228Z,0.70
2019-05-14T22:00:59.245Z,0.60
2019-05-14T22:03:28.472Z,0.78
2019-05-14T22:05:56.378Z,0.78
2019-05-14T22:08:24.022Z,0.93
2019-05-14T22:10:51.861Z,0.60
2019-05-14T22:13:19.254Z,0.50
2019-05-14T22:15:49.254Z,0.55
2019-05-14T22:18:18.515Z,0.60
2019-05-14T22:20:48.174Z,0.75
2019-05-14T22:23:18.314Z,0.60
2019-05-14T22:25:48.604Z,0.90
2019-05-14T22:28:16.862Z,0.70
2019-05-14T22:30:45.219Z,1.00
2019-05-14T22:33:12.702Z,0.70
2019-05-14T22:35:40.629Z,0.60
2019-05-14T22:38:08.382Z,0.50
2019-05-14T22:40:35.881Z,0.65
2019-05-14T22:43:03.309Z,0.53
2019-05-14T22:45:31.098Z,0.65
2019-05-14T22:47:59.132Z,0.60
2019-05-14T22:50:29.179Z,0.80
2019-05-14T22:52:58.459Z,0.60
2019-05-14T22:55:25.912Z,0.60
2019-05-14T22:57:53.774Z,0.75
2019-05-14T23:00:21.629Z,1.00
2019-05-14T23:02:49.434Z,0.82
2019-05-14T23:05:19.093Z,0.60
2019-05-14T23:07:48.547Z,0.50
2019-05-14T23:10:18.231Z,0.57
2019-05-14T23:12:45.945Z,0.60
2019-05-14T23:15:13.740Z,0.75
2019-05-14T23:17:41.658Z,0.88
2019-05-14T23:20:09.460Z,0.60
2019-05-14T23:22:39.003Z,0.60
2019-05-14T23:25:08.918Z,0.68
2019-05-14T23:27:39.091Z,0.50
2019-05-14T23:30:06.494Z,0.60
2019-05-14T23:32:34.072Z,0.72
2019-05-14T23:35:01.646Z,0.70
2019-05-14T23:37:29.961Z,0.62
2019-05-14T23:39:59.321Z,0.75
2019-05-14T23:42:27.961Z,0.75
2019-05-14T23:44:55.530Z,0.98
2019-05-14T23:47:22.956Z,0.60
2019-05-14T23:49:50.845Z,0.60
2019-05-14T23:52:19.733Z,0.70
2019-05-14T23:54:48.060Z,0.90
2019-05-14T23:57:18.157Z,0.53
2019-05-14T23:59:45.745Z,0.72
